createdAt,value
2019-04-11T00:02:23.327Z,12.20
2019-04-11T00:04:50.793Z,11.90
2019-04-11T00:07:18.492Z,13.60
2019-04-11T00:09:47.784Z,12.33
2019-04-11T00:12:16.549Z,12.67
2019-04-11T00:14:44.179Z,11.87
2019-04-11T00:17:13.831Z,12.13
2019-04-11T00:19:41.376Z,12.13
2019-04-11T00:22:09.030Z,11.27
2019-04-11T00:24:36.748Z,11.43
2019-04-11T00:27:04.611Z,11.53
2019-04-11T00:29:32.271Z,11.50
2019-04-11T00:32:01.107Z,11.70
2019-04-11T00:34:29.114Z,10.90
2019-04-11T00:36:56.907Z,12.90
2019-04-11T00:39:25.762Z,10.90
2019-04-11T00:41:54.379Z,10.40
2019-04-11T00:44:23.048Z,11.50
2019-04-11T00:46:50.900Z,11.90
2019-04-11T00:49:18.776Z,11.73
2019-04-11T00:51:46.252Z,11.03
2019-04-11T00:54:14.251Z,10.67
2019-04-11T00:56:42.262Z,9.27
2019-04-11T00:59:10.032Z,10.23
2019-04-11T01:01:37.546Z,9.17
2019-04-11T01:04:05.417Z,9.77
2019-04-11T01:06:32.925Z,9.00
2019-04-11T01:09:00.733Z,9.27
2019-04-11T01:11:28.196Z,8.43
2019-04-11T01:13:55.985Z,8.93
2019-04-11T01:16:45.725Z,9.13
2019-04-11T01:19:14.187Z,8.83
2019-04-11T01:21:42.403Z,8.87
2019-04-11T01:24:09.971Z,9.20
2019-04-11T01:26:37.689Z,8.37
2019-04-11T01:29:05.112Z,8.50
2019-04-11T01:31:34.273Z,10.13
2019-04-11T01:34:02.400Z,8.53
2019-04-11T01:36:31.126Z,9.83
2019-04-11T01:39:00.994Z,9.60
2019-04-11T01:41:28.815Z,8.00
2019-04-11T01:44:02.099Z,9.93
2019-04-11T01:46:26.431Z,8.60
2019-04-11T01:49:06.168Z,8.90
2019-04-11T01:51:33.889Z,9.67
2019-04-11T01:54:01.613Z,10.00
2019-04-11T01:56:31.457Z,8.57
2019-04-11T01:58:59.312Z,8.70
2019-04-11T02:01:41.637Z,10.20
2019-04-11T02:04:27.910Z,9.00
2019-04-11T02:06:56.281Z,9.23
2019-04-11T02:09:24.177Z,8.87
2019-04-11T02:11:52.046Z,8.73
2019-04-11T02:14:21.471Z,9.37
2019-04-11T02:16:51.148Z,9.73
2019-04-11T02:19:20.375Z,9.30
2019-04-11T02:21:49.650Z,11.70
2019-04-11T02:24:30.038Z,9.00
2019-04-11T02:27:04.946Z,9.17
2019-04-11T02:29:33.275Z,7.53
2019-04-11T02:32:03.358Z,8.73
2019-04-11T02:34:32.997Z,9.83
2019-04-11T02:37:02.373Z,9.17
2019-04-11T02:39:31.671Z,9.03
2019-04-11T02:42:01.267Z,7.83
2019-04-11T02:44:39.855Z,10.90
2019-04-11T02:47:05.593Z,8.00
2019-04-11T02:49:27.932Z,7.33
2019-04-11T02:51:56.050Z,9.23
2019-04-11T02:54:26.269Z,9.10
2019-04-11T02:56:54.833Z,9.30
2019-04-11T02:59:22.566Z,9.50
2019-04-11T03:01:50.945Z,8.97
2019-04-11T03:04:21.749Z,9.30
2019-04-11T03:06:49.818Z,9.00
2019-04-11T03:09:18.130Z,8.10
2019-04-11T03:11:47.286Z,8.97
2019-04-11T03:14:18.053Z,9.43
2019-04-11T03:16:56.685Z,10.03
2019-04-11T03:19:33.077Z,9.10
2019-04-11T03:21:46.895Z,8.73
2019-04-11T03:24:15.332Z,10.20
2019-04-11T03:26:45.561Z,9.17
2019-04-11T03:29:13.224Z,8.53
2019-04-11T03:32:18.258Z,8.37
2019-04-11T03:35:09.377Z,8.67
2019-04-11T03:39:29.172Z,8.90
2019-04-11T03:41:54.593Z,9.43
2019-04-11T03:44:16.939Z,8.70
2019-04-11T03:46:51.144Z,9.37
2019-04-11T03:49:22.295Z,9.17
2019-04-11T03:51:37.064Z,8.87
2019-04-11T03:54:07.585Z,9.57
2019-04-11T03:56:37.203Z,8.03
2019-04-11T03:59:06.163Z,10.10
2019-04-11T04:01:34.986Z,9.30
2019-04-11T04:04:02.862Z,9.53
2019-04-11T04:06:31.500Z,8.70
2019-04-11T04:09:01.112Z,9.60
2019-04-11T04:11:31.983Z,8.33
2019-04-11T04:14:21.577Z,9.60
2019-04-11T04:17:10.450Z,9.10
2019-04-11T04:20:04.890Z,8.70
2019-04-11T04:22:42.096Z,9.53
2019-04-11T04:25:12.403Z,9.27
2019-04-11T04:27:41.032Z,9.07
2019-04-11T04:30:10.938Z,10.07
2019-04-11T04:32:40.479Z,9.80
2019-04-11T04:35:12.776Z,9.57
2019-04-11T04:37:38.751Z,9.70
2019-04-11T04:40:24.002Z,9.37
2019-04-11T04:42:40.214Z,8.43
2019-04-11T04:45:07.385Z,8.53
2019-04-11T04:47:42.396Z,8.97
2019-04-11T04:50:06.428Z,14.43
2019-04-11T04:52:35.890Z,14.27
2019-04-11T04:55:05.686Z,14.87
2019-04-11T04:57:35.867Z,13.60
2019-04-11T05:00:05.605Z,10.40
2019-04-11T05:02:35.443Z,10.00
2019-04-11T05:05:05.913Z,9.20
2019-04-11T05:07:37.918Z,10.43
2019-04-11T05:10:07.320Z,9.80
2019-04-11T05:12:36.564Z,9.03
2019-04-11T05:15:07.912Z,9.77
2019-04-11T05:17:46.123Z,9.80
2019-04-11T05:20:28.079Z,8.90
2019-04-11T05:23:00.005Z,9.27
2019-04-11T05:25:29.349Z,11.77
2019-04-11T05:27:58.311Z,8.70
2019-04-11T05:30:27.210Z,11.27
2019-04-11T05:32:55.698Z,9.87
2019-04-11T05:35:26.931Z,9.90
2019-04-11T05:37:55.755Z,9.10
2019-04-11T05:40:24.144Z,9.17
2019-04-11T05:42:55.726Z,9.70
2019-04-11T05:45:25.721Z,9.50
2019-04-11T05:47:56.358Z,8.97
2019-04-11T05:50:32.395Z,8.73
2019-04-11T05:53:03.852Z,9.57
2019-04-11T05:55:34.848Z,10.03
2019-04-11T05:58:05.836Z,10.97
2019-04-11T06:00:50.237Z,10.17
2019-04-11T06:03:17.889Z,10.00
2019-04-11T06:06:05.065Z,10.00
2019-04-11T06:08:32.713Z,9.73
2019-04-11T06:11:16.392Z,8.47
2019-04-11T06:14:03.743Z,10.10
2019-04-11T06:16:41.055Z,8.77
2019-04-11T06:19:31.205Z,11.30
2019-04-11T06:22:06.646Z,9.00
2019-04-11T06:25:06.668Z,9.80
2019-04-11T06:27:57.921Z,10.63
2019-04-11T06:30:44.400Z,10.57
2019-04-11T06:33:24.720Z,8.40
2019-04-11T06:36:18.150Z,10.67
2019-04-11T06:39:05.345Z,10.00
2019-04-11T06:41:43.766Z,11.10
2019-04-11T06:44:22.292Z,9.73
2019-04-11T06:47:10.387Z,12.00
2019-04-11T06:49:56.295Z,10.47
2019-04-11T06:52:26.508Z,11.03
2019-04-11T06:55:15.177Z,9.00
2019-04-11T06:57:43.144Z,10.33
2019-04-11T07:00:11.234Z,10.30
2019-04-11T07:02:41.779Z,10.67
2019-04-11T07:05:10.665Z,10.87
2019-04-11T07:07:40.857Z,10.87
2019-04-11T07:10:09.513Z,10.90
2019-04-11T07:12:43.811Z,12.27
2019-04-11T07:15:33.204Z,8.20
2019-04-11T07:18:19.077Z,11.33
2019-04-11T07:21:04.602Z,10.43
2019-04-11T07:23:51.351Z,10.53
2019-04-11T07:26:37.431Z,11.77
2019-04-11T07:29:27.178Z,11.90
2019-04-11T07:32:04.938Z,11.80
2019-04-11T07:34:46.241Z,10.93
2019-04-11T07:37:32.603Z,12.67
2019-04-11T07:40:26.851Z,12.33
2019-04-11T07:43:15.744Z,11.77
2019-04-11T07:46:02.814Z,12.03
2019-04-11T07:48:36.130Z,11.30
2019-04-11T07:51:41.180Z,11.40
2019-04-11T07:54:13.683Z,11.83
2019-04-11T07:57:04.041Z,11.27
2019-04-11T07:59:57.873Z,12.30
2019-04-11T08:02:45.553Z,10.63
2019-04-11T08:05:34.446Z,9.17
2019-04-11T08:08:13.402Z,10.93
2019-04-11T08:10:52.593Z,12.50
2019-04-11T08:13:30.881Z,11.43
2019-04-11T08:16:23.762Z,12.47
2019-04-11T08:19:10.737Z,12.50
2019-04-11T08:21:56.883Z,10.77
2019-04-11T08:24:30.516Z,10.00
2019-04-11T08:27:20.514Z,11.97
2019-04-11T08:29:50.557Z,11.57
2019-04-11T08:32:44.343Z,11.77
2019-04-11T08:35:30.348Z,10.57
2019-04-11T08:38:06.233Z,12.10
2019-04-11T08:40:39.560Z,11.03
2019-04-11T08:43:14.963Z,11.70
2019-04-11T08:45:48.480Z,10.93
2019-04-11T08:48:17.289Z,11.67
2019-04-11T08:50:48.251Z,10.43
2019-04-11T08:53:29.563Z,11.60
2019-04-11T08:56:02.106Z,12.10
2019-04-11T08:58:44.769Z,12.13
2019-04-11T09:01:13.941Z,11.43
2019-04-11T09:04:16.795Z,11.33
2019-04-11T09:06:45.713Z,10.53
2019-04-11T09:09:43.162Z,10.73
2019-04-11T09:12:14.071Z,11.47
2019-04-11T09:15:02.564Z,11.23
2019-04-11T09:17:48.377Z,12.67
2019-04-11T09:20:29.656Z,10.77
2019-04-11T09:23:09.295Z,11.73
2019-04-11T09:25:56.565Z,12.93
2019-04-11T09:28:44.364Z,12.10
2019-04-11T09:31:41.471Z,10.67
2019-04-11T09:34:28.044Z,12.07
2019-04-11T09:37:19.215Z,11.13
2019-04-11T09:40:23.922Z,11.90
2019-04-11T09:43:26.523Z,12.23
2019-04-11T09:46:22.055Z,12.27
2019-04-11T09:49:18.492Z,10.33
2019-04-11T09:51:58.342Z,12.50
2019-04-11T09:54:45.739Z,12.23
2019-04-11T09:57:33.082Z,12.57
2019-04-11T10:00:23.014Z,11.90
2019-04-11T10:02:56.279Z,11.67
2019-04-11T10:05:51.798Z,12.50
2019-04-11T10:08:33.102Z,12.37
2019-04-11T10:11:18.868Z,11.67
2019-04-11T10:14:07.614Z,11.63
2019-04-11T10:17:00.488Z,11.70
2019-04-11T10:19:56.517Z,12.73
2019-04-11T10:22:43.911Z,12.20
2019-04-11T10:25:17.378Z,11.10
2019-04-11T10:28:03.404Z,11.70
2019-04-11T10:30:50.266Z,12.03
2019-04-11T10:33:28.940Z,10.83
2019-04-11T10:36:40.642Z,11.70
2019-04-11T10:39:29.058Z,10.73
2019-04-11T10:42:00.474Z,11.83
2019-04-11T10:44:47.833Z,11.97
2019-04-11T10:47:18.225Z,11.40
2019-04-11T10:50:11.196Z,12.67
2019-04-11T10:52:42.530Z,12.70
2019-04-11T10:55:33.585Z,13.07
2019-04-11T10:58:06.842Z,12.60
2019-04-11T11:00:58.226Z,12.63
2019-04-11T11:03:36.088Z,13.20
2019-04-11T11:06:05.318Z,12.63
2019-04-11T11:08:44.494Z,13.50
2019-04-11T11:11:24.068Z,13.90
2019-04-11T11:14:14.348Z,13.57
2019-04-11T11:16:48.647Z,13.10
2019-04-11T11:19:50.129Z,13.43
2019-04-11T11:22:23.878Z,11.90
2019-04-11T11:25:15.021Z,13.50
2019-04-11T11:27:43.653Z,13.50
2019-04-11T11:30:41.499Z,12.57
2019-04-11T11:33:12.345Z,13.43
2019-04-11T11:36:17.330Z,13.03
2019-04-11T11:38:55.368Z,12.93
2019-04-11T11:41:40.922Z,14.33
2019-04-11T11:44:09.828Z,13.20
2019-04-11T11:47:03.887Z,15.00
2019-04-11T11:49:44.833Z,14.10
2019-04-11T11:52:39.358Z,13.90
2019-04-11T11:55:12.427Z,15.00
2019-04-11T11:57:50.912Z,15.10
2019-04-11T12:00:23.311Z,13.93
2019-04-11T12:03:10.725Z,13.70
2019-04-11T12:05:53.697Z,13.63
2019-04-11T12:08:37.531Z,14.47
2019-04-11T12:11:08.709Z,13.10
2019-04-11T12:13:55.724Z,15.87
2019-04-11T12:16:39.728Z,14.43
2019-04-11T12:19:26.991Z,14.77
2019-04-11T12:21:55.883Z,14.77
2019-04-11T12:24:54.501Z,16.07
2019-04-11T12:27:41.489Z,14.23
2019-04-11T12:30:36.001Z,15.20
2019-04-11T12:33:23.885Z,15.10
2019-04-11T12:36:05.540Z,18.37
2019-04-11T12:38:59.173Z,16.07
2019-04-11T12:41:45.039Z,16.37
2019-04-11T12:44:49.225Z,15.97
2019-04-11T12:47:38.648Z,16.20
2019-04-11T12:50:30.765Z,15.93
2019-04-11T12:53:29.702Z,14.70
2019-04-11T12:56:32.061Z,15.10
2019-04-11T12:59:03.061Z,14.77
2019-04-11T13:01:55.897Z,17.30
2019-04-11T13:04:27.649Z,16.47
2019-04-11T13:07:26.815Z,16.20
2019-04-11T13:10:20.148Z,17.63
2019-04-11T13:13:19.702Z,15.73
2019-04-11T13:15:54.544Z,16.23
2019-04-11T13:18:43.066Z,17.00
2019-04-11T13:21:28.227Z,14.63
2019-04-11T13:24:15.484Z,17.57
2019-04-11T13:27:04.593Z,16.70
2019-04-11T13:30:06.854Z,16.33
2019-04-11T13:33:08.574Z,17.40
2019-04-11T13:36:05.278Z,14.73
2019-04-11T13:38:42.898Z,16.80
2019-04-11T13:41:28.838Z,16.10
2019-04-11T13:44:11.522Z,16.30
2019-04-11T13:46:58.594Z,15.63
2019-04-11T13:49:54.609Z,15.60
2019-04-11T13:52:41.735Z,16.13
2019-04-11T13:55:37.500Z,15.37
2019-04-11T13:58:23.671Z,17.40
2019-04-11T14:00:56.653Z,14.60
2019-04-11T14:03:51.527Z,16.00
2019-04-11T14:06:27.083Z,15.13
2019-04-11T14:09:20.162Z,15.63
2019-04-11T14:11:52.174Z,17.97
2019-04-11T14:14:28.679Z,17.17
2019-04-11T14:17:17.060Z,14.50
2019-04-11T14:20:03.138Z,16.90
2019-04-11T14:22:37.615Z,15.70
2019-04-11T14:25:20.991Z,15.33
2019-04-11T14:28:00.466Z,17.00
2019-04-11T14:30:46.692Z,14.53
2019-04-11T14:33:16.126Z,15.00
2019-04-11T14:36:03.437Z,16.43
2019-04-11T14:38:32.423Z,15.43
2019-04-11T14:41:18.976Z,16.47
2019-04-11T14:43:53.993Z,14.27
2019-04-11T14:46:39.588Z,15.67
2019-04-11T14:49:21.413Z,14.83
2019-04-11T14:52:25.340Z,15.07
2019-04-11T14:54:58.149Z,14.67
2019-04-11T14:57:46.853Z,15.20
2019-04-11T15:00:32.785Z,14.97
2019-04-11T15:03:29.237Z,14.67
2019-04-11T15:06:19.457Z,17.23
2019-04-11T15:09:06.494Z,15.07
2019-04-11T15:11:53.553Z,15.47
2019-04-11T15:14:40.637Z,14.90
2019-04-11T15:17:33.980Z,14.87
2019-04-11T15:20:34.136Z,17.07
2019-04-11T15:23:27.243Z,14.80
2019-04-11T15:26:16.832Z,15.40
2019-04-11T15:28:54.997Z,15.13
2019-04-11T15:31:39.636Z,14.67
2019-04-11T15:34:16.455Z,15.90
2019-04-11T15:36:52.464Z,13.97
2019-04-11T15:39:57.592Z,15.63
2019-04-11T15:42:46.243Z,14.93
2019-04-11T15:45:18.736Z,14.27
2019-04-11T15:48:04.102Z,14.23
2019-04-11T15:51:05.835Z,14.20
2019-04-11T15:53:36.962Z,15.13
2019-04-11T15:56:29.178Z,15.43
2019-04-11T15:59:03.285Z,14.87
2019-04-11T16:01:50.461Z,13.53
2019-04-11T16:04:34.166Z,14.13
2019-04-11T16:07:20.162Z,13.77
2019-04-11T16:09:48.052Z,15.03
2019-04-11T16:12:37.848Z,16.03
2019-04-11T16:15:11.792Z,15.00
2019-04-11T16:18:07.967Z,13.97
2019-04-11T16:20:35.961Z,14.33
2019-04-11T16:23:25.919Z,14.57
2019-04-11T16:25:55.230Z,13.37
2019-04-11T16:28:51.144Z,14.23
2019-04-11T16:31:19.337Z,14.43
2019-04-11T16:34:09.217Z,15.77
2019-04-11T16:37:05.605Z,14.63
2019-04-11T16:39:54.973Z,16.63
2019-04-11T16:42:30.535Z,16.67
2019-04-11T16:45:25.037Z,14.10
2019-04-11T16:48:10.914Z,13.70
2019-04-11T16:50:39.015Z,16.27
2019-04-11T16:53:10.563Z,12.10
2019-04-11T16:55:37.036Z,13.10
2019-04-11T16:58:08.886Z,18.23
2019-04-11T17:00:38.189Z,15.67
2019-04-11T17:03:09.469Z,16.10
2019-04-11T17:05:44.271Z,13.80
2019-04-11T17:08:31.781Z,15.97
2019-04-11T17:11:11.782Z,13.90
2019-04-11T17:13:39.642Z,14.27
2019-04-11T17:16:10.756Z,14.10
2019-04-11T17:18:40.389Z,14.90
2019-04-11T17:21:09.263Z,15.33
2019-04-11T17:23:37.444Z,14.70
2019-04-11T17:26:06.556Z,14.47
2019-04-11T17:28:37.230Z,13.67
2019-04-11T17:31:10.815Z,13.93
2019-04-11T17:33:38.841Z,13.50
2019-04-11T17:36:07.130Z,14.90
2019-04-11T17:38:37.162Z,15.17
2019-04-11T17:41:10.856Z,14.97
2019-04-11T17:43:34.337Z,16.27
2019-04-11T17:46:02.206Z,12.87
2019-04-11T17:48:34.221Z,14.10
2019-04-11T17:51:04.807Z,14.50
2019-04-11T17:53:32.443Z,16.33
2019-04-11T17:56:00.581Z,13.47
2019-04-11T17:58:28.809Z,13.77
2019-04-11T18:01:00.372Z,13.03
2019-04-11T18:03:28.682Z,12.83
2019-04-11T18:05:56.487Z,13.27
2019-04-11T18:08:24.664Z,14.97
2019-04-11T18:10:55.741Z,13.40
2019-04-11T18:13:22.669Z,14.50
2019-04-11T18:15:50.649Z,14.53
2019-04-11T18:18:24.297Z,13.47
2019-04-11T18:20:52.733Z,13.10
2019-04-11T18:23:23.021Z,13.80
2019-04-11T18:25:53.442Z,12.27
2019-04-11T18:28:21.960Z,13.50
2019-04-11T18:30:53.793Z,13.80
2019-04-11T18:33:20.306Z,13.27
2019-04-11T18:35:49.428Z,12.70
2019-04-11T18:38:17.599Z,14.20
2019-04-11T18:40:48.071Z,13.90
2019-04-11T18:43:16.337Z,12.67
2019-04-11T18:45:44.794Z,12.97
2019-04-11T18:48:14.402Z,12.23
2019-04-11T18:50:42.075Z,13.60
2019-04-11T18:53:09.759Z,13.50
2019-04-11T18:55:39.047Z,13.57
2019-04-11T18:58:06.762Z,19.50
2019-04-11T19:00:37.935Z,16.33
2019-04-11T19:03:05.044Z,14.47
2019-04-11T19:05:32.742Z,14.80
2019-04-11T19:08:00.587Z,12.10
2019-04-11T19:10:31.390Z,13.43
2019-04-11T19:12:59.268Z,12.13
2019-04-11T19:15:27.048Z,13.70
2019-04-11T19:18:05.605Z,13.77
2019-04-11T19:20:24.328Z,12.10
2019-04-11T19:22:51.973Z,10.57
2019-04-11T19:25:19.764Z,13.20
2019-04-11T19:27:50.061Z,14.47
2019-04-11T19:30:16.989Z,13.33
2019-04-11T19:32:45.276Z,12.90
2019-04-11T19:35:15.994Z,13.87
2019-04-11T19:37:47.396Z,11.80
2019-04-11T19:40:16.438Z,13.17
2019-04-11T19:42:49.060Z,13.13
2019-04-11T19:45:22.480Z,12.50
2019-04-11T19:47:58.536Z,11.47
2019-04-11T19:50:29.634Z,11.20
2019-04-11T19:53:02.873Z,10.47
2019-04-11T19:55:41.068Z,11.00
2019-04-11T19:58:09.352Z,13.70
2019-04-11T20:00:44.131Z,12.17
2019-04-11T20:03:14.235Z,11.70
2019-04-11T20:05:42.369Z,10.90
2019-04-11T20:08:12.260Z,11.80
2019-04-11T20:10:42.898Z,11.03
2019-04-11T20:13:14.669Z,11.03
2019-04-11T20:15:45.324Z,13.00
2019-04-11T20:18:12.947Z,10.93
2019-04-11T20:20:44.799Z,11.37
2019-04-11T20:23:13.908Z,12.00
2019-04-11T20:25:46.353Z,12.40
2019-04-11T20:28:13.395Z,17.93
2019-04-11T20:31:00.731Z,24.30
2019-04-11T20:33:33.879Z,13.40
2019-04-11T20:36:32.915Z,12.63
2019-04-11T20:38:51.707Z,11.53
2019-04-11T20:41:23.158Z,11.50
2019-04-11T20:43:56.048Z,11.63
2019-04-11T20:50:46.809Z,12.60
2019-04-11T20:54:13.586Z,12.93
2019-04-11T20:56:52.508Z,12.00
2019-04-11T21:00:01.025Z,10.83
2019-04-11T21:02:49.333Z,11.20
2019-04-11T21:05:19.154Z,12.87
2019-04-11T21:07:51.340Z,10.80
2019-04-11T21:10:28.802Z,10.00
2019-04-11T21:13:12.616Z,12.00
2019-04-11T21:38:19.943Z,11.53
2019-04-11T21:41:57.952Z,11.43
2019-04-11T21:52:03.131Z,10.33
2019-04-11T21:54:56.495Z,11.67
2019-04-11T21:58:25.221Z,9.40
2019-04-11T22:01:40.664Z,12.50
2019-04-11T22:07:49.377Z,10.57
2019-04-11T22:10:50.177Z,10.50
2019-04-11T22:13:42.731Z,10.30
2019-04-11T22:19:51.922Z,9.13
2019-04-11T22:23:13.065Z,10.27
2019-04-11T22:26:36.344Z,8.23
2019-04-11T22:32:43.242Z,10.57
2019-04-11T22:36:14.530Z,9.67
2019-04-11T22:42:40.287Z,10.07
2019-04-11T22:45:24.190Z,10.07
2019-04-11T22:48:23.979Z,9.90
2019-04-11T22:51:16.955Z,11.43
2019-04-11T22:54:13.150Z,10.60
2019-04-11T22:56:55.980Z,9.83
2019-04-11T22:59:44.025Z,10.33
2019-04-11T23:02:24.954Z,9.93
2019-04-11T23:05:09.726Z,10.37
2019-04-11T23:08:02.919Z,9.63
2019-04-11T23:10:42.419Z,8.70
2019-04-11T23:13:29.330Z,9.77
2019-04-11T23:16:14.414Z,8.47
2019-04-11T23:18:47.157Z,9.37
2019-04-11T23:21:26.399Z,9.30
2019-04-11T23:24:11.823Z,9.20
2019-04-11T23:27:12.930Z,7.53
2019-04-11T23:30:20.916Z,9.70
2019-04-11T23:33:37.268Z,10.23
2019-04-11T23:36:26.867Z,9.33
2019-04-11T23:43:20.145Z,10.87
2019-04-11T23:46:15.084Z,8.53
2019-04-11T23:49:30.524Z,9.20
2019-04-11T23:52:50.346Z,8.90
2019-04-11T23:56:00.154Z,9.83
2019-04-11T23:59:13.090Z,9.80
